Terminal Aerodrome Forecast
Issued by NWS

Home | Current Version | Previous Version | Text Only | Print | Product List | Glossary On
Versions: 1 2 3 4 5 6 7 8 9 10 11 12 13 14 15 16 17
000
FTUS46 KHNX 111122
TAFMCE
TAF
KMCE 111122Z 1112/1212 VRB03KT 2SM BR SCT002 OVC150
      TEMPO 1112/1116 1/4SM FG VV002
     FM111900 32006KT 5SM HZ BKN150
     FM120300 VRB03KT 3SM BR BKN150
      TEMPO 1208/1212 1SM BR=

USA.gov is the U.S. government's official web portal to all federal, state and local government web resources and services.